createdAt,value
2018-07-13T00:01:55.735Z,6.23
2018-07-13T00:04:37.979Z,6.07
2018-07-13T00:07:19.589Z,6.23
2018-07-13T00:10:01.477Z,5.33
2018-07-13T00:12:42.853Z,5.53
2018-07-13T00:15:26.626Z,4.87
2018-07-13T00:18:09.085Z,5.43
2018-07-13T00:20:51.417Z,5.43
2018-07-13T00:23:33.603Z,4.97
2018-07-13T00:26:19.764Z,5.30
2018-07-13T00:29:01.469Z,4.70
2018-07-13T00:31:44.081Z,4.67
2018-07-13T00:34:26.852Z,4.30
2018-07-13T00:37:08.390Z,4.30
2018-07-13T00:39:53.127Z,4.67
2018-07-13T00:42:34.450Z,4.90
2018-07-13T00:45:15.913Z,4.97
2018-07-13T00:47:57.428Z,4.67
2018-07-13T00:50:39.049Z,5.00
2018-07-13T00:53:21.652Z,5.23
2018-07-13T00:56:06.232Z,5.03
2018-07-13T00:58:48.141Z,4.90
2018-07-13T01:01:30.940Z,4.37
2018-07-13T01:04:13.259Z,4.80
2018-07-13T01:06:56.600Z,4.30
2018-07-13T01:09:41.435Z,4.97
2018-07-13T01:12:24.489Z,4.60
2018-07-13T01:15:11.952Z,4.60
2018-07-13T01:17:54.284Z,4.17
2018-07-13T01:20:36.998Z,4.43
2018-07-13T01:23:18.803Z,4.30
2018-07-13T01:26:01.971Z,4.87
2018-07-13T01:28:44.927Z,4.27
2018-07-13T01:31:28.113Z,4.40
2018-07-13T01:34:09.979Z,4.23
2018-07-13T01:36:52.569Z,4.43
2018-07-13T01:39:35.705Z,4.23
2018-07-13T01:42:18.223Z,4.73
2018-07-13T01:45:01.016Z,4.67
2018-07-13T01:47:45.522Z,4.77
2018-07-13T01:50:27.346Z,5.03
2018-07-13T01:53:11.957Z,5.23
2018-07-13T01:55:57.348Z,5.10
2018-07-13T01:58:39.204Z,5.30
2018-07-13T02:01:35.520Z,5.77
2018-07-13T02:04:18.436Z,5.03
2018-07-13T02:07:00.686Z,5.90
2018-07-13T02:09:42.216Z,6.50
2018-07-13T02:12:24.121Z,5.63
2018-07-13T02:15:05.585Z,6.20
2018-07-13T02:17:47.170Z,6.13
2018-07-13T02:20:28.718Z,6.20
2018-07-13T02:23:10.905Z,6.30
2018-07-13T02:25:53.853Z,6.40
2018-07-13T02:28:35.288Z,6.67
2018-07-13T02:31:16.837Z,7.27
2018-07-13T02:33:58.355Z,7.00
2018-07-13T02:36:39.576Z,7.07
2018-07-13T02:39:21.957Z,7.07
2018-07-13T02:42:03.553Z,7.93
2018-07-13T02:44:45.036Z,7.70
2018-07-13T02:47:26.440Z,7.30
2018-07-13T02:50:07.840Z,6.73
2018-07-13T02:52:49.235Z,7.53
2018-07-13T02:55:30.656Z,6.93
2018-07-13T02:58:11.962Z,8.00
2018-07-13T03:00:53.998Z,8.33
2018-07-13T03:03:36.127Z,8.30
2018-07-13T03:06:17.649Z,8.57
2018-07-13T03:09:00.397Z,7.87
2018-07-13T03:11:42.044Z,8.53
2018-07-13T03:14:24.297Z,7.50
2018-07-13T03:17:05.857Z,7.43
2018-07-13T03:19:47.100Z,8.30
2018-07-13T03:22:28.347Z,7.57
2018-07-13T03:25:09.898Z,6.97
2018-07-13T03:27:53.070Z,7.20
2018-07-13T03:30:34.540Z,7.77
2018-07-13T03:33:16.105Z,7.83
2018-07-13T03:35:57.472Z,7.57
2018-07-13T03:38:38.916Z,7.20
2018-07-13T03:41:21.236Z,6.70
2018-07-13T03:44:02.820Z,7.50
2018-07-13T03:46:44.107Z,7.83
2018-07-13T03:49:25.711Z,7.27
2018-07-13T03:52:08.334Z,6.97
2018-07-13T03:54:50.300Z,7.70
2018-07-13T03:57:31.768Z,7.83
2018-07-13T04:00:13.132Z,8.30
2018-07-13T04:02:55.232Z,7.93
2018-07-13T04:05:36.749Z,7.80
2018-07-13T04:08:18.127Z,9.10
2018-07-13T04:11:00.009Z,7.97
2018-07-13T04:13:41.287Z,9.17
2018-07-13T04:16:23.350Z,8.90
2018-07-13T04:19:04.956Z,9.67
2018-07-13T04:21:46.203Z,9.17
2018-07-13T04:24:27.735Z,8.97
2018-07-13T04:27:09.287Z,8.17
2018-07-13T04:29:51.936Z,7.53
2018-07-13T04:32:33.540Z,8.33
2018-07-13T04:35:14.987Z,8.33
2018-07-13T04:37:56.403Z,8.20
2018-07-13T04:40:37.924Z,9.00
2018-07-13T04:43:20.300Z,8.83
2018-07-13T04:46:01.644Z,11.17
2018-07-13T04:48:43.233Z,9.47
2018-07-13T04:51:25.319Z,10.43
2018-07-13T04:54:06.824Z,10.27
2018-07-13T04:56:48.243Z,10.30
2018-07-13T04:59:29.941Z,10.47
2018-07-13T05:02:11.287Z,10.13
2018-07-13T05:04:53.126Z,10.70
2018-07-13T05:07:34.609Z,10.30
2018-07-13T05:10:16.024Z,9.50
2018-07-13T05:12:57.494Z,10.17
2018-07-13T05:15:38.865Z,8.83
2018-07-13T05:18:21.160Z,9.70
2018-07-13T05:21:02.860Z,8.93
2018-07-13T05:23:44.334Z,8.87
2018-07-13T05:26:26.084Z,9.13
2018-07-13T05:29:07.571Z,9.77
2018-07-13T05:31:49.095Z,10.00
2018-07-13T05:34:30.489Z,9.30
2018-07-13T05:37:12.009Z,8.87
2018-07-13T05:39:54.017Z,9.63
2018-07-13T05:42:35.527Z,9.30
2018-07-13T05:45:17.067Z,9.30
2018-07-13T05:47:58.563Z,9.43
2018-07-13T05:50:40.043Z,10.87
2018-07-13T05:53:23.082Z,10.20
2018-07-13T05:56:04.469Z,9.70
2018-07-13T05:58:45.838Z,10.87
2018-07-13T06:01:27.071Z,10.00
2018-07-13T06:04:08.615Z,10.07
2018-07-13T06:06:50.156Z,9.83
2018-07-13T06:09:31.571Z,10.60
2018-07-13T06:12:13.063Z,10.03
2018-07-13T06:14:55.227Z,9.83
2018-07-13T06:17:36.690Z,10.37
2018-07-13T06:20:18.130Z,10.80
2018-07-13T06:22:59.777Z,9.83
2018-07-13T06:25:41.188Z,10.27
2018-07-13T06:28:23.043Z,10.77
2018-07-13T06:31:04.296Z,10.97
2018-07-13T06:33:45.670Z,10.63
2018-07-13T06:36:27.109Z,11.07
2018-07-13T06:39:10.584Z,11.77
2018-07-13T06:41:53.042Z,11.93
2018-07-13T06:44:34.563Z,11.23
2018-07-13T06:47:16.029Z,10.93
2018-07-13T06:49:57.512Z,11.40
2018-07-13T06:52:39.000Z,10.80
2018-07-13T06:55:21.079Z,11.10
2018-07-13T06:58:20.144Z,10.67
2018-07-13T07:01:15.821Z,10.50
2018-07-13T07:04:44.856Z,10.70
2018-07-13T07:07:27.549Z,10.70
2018-07-13T07:10:08.668Z,10.23
2018-07-13T07:13:02.005Z,9.70
2018-07-13T07:15:43.219Z,9.67
2018-07-13T07:18:25.240Z,11.17
2018-07-13T07:21:06.996Z,9.27
2018-07-13T07:23:48.560Z,11.27
2018-07-13T07:26:30.015Z,10.93
2018-07-13T07:29:11.388Z,10.47
2018-07-13T07:31:54.041Z,9.00
2018-07-13T07:34:35.442Z,9.50
2018-07-13T07:37:16.755Z,9.20
2018-07-13T07:39:58.391Z,8.57
2018-07-13T07:42:39.951Z,8.73
2018-07-13T07:45:22.983Z,8.53
2018-07-13T07:48:04.247Z,8.07
2018-07-13T07:50:45.573Z,7.37
2018-07-13T07:53:27.168Z,7.00
2018-07-13T07:56:08.304Z,7.60
2018-07-13T07:58:50.035Z,6.73
2018-07-13T08:01:31.433Z,6.77
2018-07-13T08:04:12.898Z,7.30
2018-07-13T08:06:55.410Z,7.23
2018-07-13T08:09:36.792Z,7.17
2018-07-13T08:12:18.293Z,7.27
2018-07-13T08:14:59.885Z,7.40
2018-07-13T08:17:41.447Z,6.43
2018-07-13T08:20:29.225Z,6.33
2018-07-13T08:23:10.905Z,6.67
2018-07-13T08:25:54.156Z,7.80
2018-07-13T08:28:35.901Z,5.80
2018-07-13T08:31:17.426Z,6.30
2018-07-13T08:33:58.685Z,5.87
2018-07-13T08:36:40.097Z,6.93
2018-07-13T08:39:23.084Z,6.80
2018-07-13T08:42:04.527Z,6.10
2018-07-13T08:44:45.891Z,6.27
2018-07-13T08:47:27.344Z,6.03
2018-07-13T08:50:09.452Z,6.50
2018-07-13T08:52:53.136Z,6.97
2018-07-13T08:55:35.151Z,6.57
2018-07-13T08:58:16.846Z,6.40
2018-07-13T09:00:58.356Z,4.90
2018-07-13T09:03:39.623Z,5.37
2018-07-13T09:06:22.006Z,5.00
2018-07-13T09:09:03.336Z,5.07
2018-07-13T09:11:44.827Z,5.43
2018-07-13T09:14:26.427Z,4.40
2018-07-13T09:17:07.796Z,4.53
2018-07-13T09:19:50.155Z,4.47
2018-07-13T09:22:31.545Z,5.00
2018-07-13T09:25:13.059Z,5.03
2018-07-13T09:27:55.143Z,4.43
2018-07-13T09:30:36.623Z,4.67
2018-07-13T09:33:18.102Z,4.63
2018-07-13T09:35:59.681Z,4.60
2018-07-13T09:38:41.038Z,4.83
2018-07-13T09:41:23.030Z,4.30
2018-07-13T09:44:04.451Z,3.57
2018-07-13T09:46:46.043Z,3.77
2018-07-13T09:49:27.517Z,3.37
2018-07-13T09:52:08.782Z,3.23
2018-07-13T09:54:50.371Z,3.57
2018-07-13T09:57:31.892Z,4.00
2018-07-13T10:00:13.881Z,3.77
2018-07-13T10:02:55.752Z,4.17
2018-07-13T10:05:37.012Z,3.80
2018-07-13T10:08:18.367Z,4.30
2018-07-13T10:10:59.916Z,4.03
2018-07-13T10:13:41.508Z,3.70
2018-07-13T10:16:23.589Z,4.00
2018-07-13T10:19:05.284Z,3.80
2018-07-13T10:21:47.677Z,3.77
2018-07-13T10:24:31.068Z,3.90
2018-07-13T10:27:13.918Z,4.23
2018-07-13T10:29:57.386Z,3.77
2018-07-13T10:32:38.817Z,3.63
2018-07-13T10:35:21.388Z,3.63
2018-07-13T10:38:02.775Z,3.60
2018-07-13T10:40:44.412Z,4.17
2018-07-13T10:43:26.168Z,3.67
2018-07-13T10:46:07.667Z,2.90
2018-07-13T10:48:49.054Z,3.50
2018-07-13T10:51:30.462Z,4.17
2018-07-13T10:54:11.954Z,3.10
2018-07-13T10:56:54.126Z,4.90
2018-07-13T10:59:35.513Z,3.40
2018-07-13T11:02:16.809Z,3.27
2018-07-13T11:04:58.320Z,3.00
2018-07-13T11:07:39.592Z,3.53
2018-07-13T11:10:21.887Z,2.80
2018-07-13T11:13:03.456Z,3.40
2018-07-13T11:15:44.949Z,3.73
2018-07-13T11:18:26.654Z,3.43
2018-07-13T11:21:09.000Z,3.40
2018-07-13T11:23:51.360Z,3.40
2018-07-13T11:26:32.942Z,3.07
2018-07-13T11:29:14.519Z,3.37
2018-07-13T11:31:56.422Z,3.50
2018-07-13T11:34:37.979Z,3.00
2018-07-13T11:37:20.353Z,2.77
2018-07-13T11:40:01.920Z,3.00
2018-07-13T11:42:43.569Z,2.93
2018-07-13T11:45:26.304Z,3.60
2018-07-13T11:48:07.724Z,3.40
2018-07-13T11:50:49.246Z,3.00
2018-07-13T11:53:30.485Z,2.93
2018-07-13T11:56:12.043Z,3.60
2018-07-13T11:58:54.125Z,3.27
2018-07-13T12:01:35.655Z,3.53
2018-07-13T12:04:17.055Z,3.53
2018-07-13T12:06:58.440Z,3.60
2018-07-13T12:09:39.816Z,3.30
2018-07-13T12:12:21.818Z,3.70
2018-07-13T12:15:03.267Z,3.37
2018-07-13T12:17:59.380Z,3.20
2018-07-13T12:20:40.980Z,2.90
2018-07-13T12:23:23.296Z,3.30
2018-07-13T12:26:04.792Z,3.27
2018-07-13T12:28:46.351Z,3.60
2018-07-13T12:31:27.817Z,4.37
2018-07-13T12:34:09.428Z,3.67
2018-07-13T12:36:52.094Z,4.20
2018-07-13T12:39:33.618Z,3.97
2018-07-13T12:42:15.251Z,3.40
2018-07-13T12:44:56.586Z,4.03
2018-07-13T12:47:38.101Z,4.03
2018-07-13T12:50:20.284Z,4.00
2018-07-13T12:53:01.732Z,4.57
2018-07-13T12:55:43.273Z,4.30
2018-07-13T12:58:25.292Z,4.00
2018-07-13T13:01:06.847Z,4.20
2018-07-13T13:03:48.541Z,4.20
2018-07-13T13:06:30.067Z,3.87
2018-07-13T13:09:13.239Z,4.60
2018-07-13T13:11:55.127Z,4.40
2018-07-13T13:14:36.476Z,4.97
2018-07-13T13:17:17.849Z,4.40
2018-07-13T13:20:01.545Z,7.27
2018-07-13T13:22:42.990Z,7.50
2018-07-13T13:25:24.940Z,5.63
2018-07-13T13:28:06.378Z,6.07
2018-07-13T13:30:47.867Z,6.23
2018-07-13T13:33:29.459Z,6.17
2018-07-13T13:36:10.995Z,6.40
2018-07-13T13:38:53.016Z,6.10
2018-07-13T13:41:34.545Z,6.20
2018-07-13T13:44:15.987Z,6.30
2018-07-13T13:46:57.479Z,6.57
2018-07-13T13:49:38.921Z,5.77
2018-07-13T13:52:21.123Z,5.73
2018-07-13T13:55:02.548Z,6.30
2018-07-13T13:57:44.408Z,5.13
2018-07-13T14:00:26.048Z,5.60
2018-07-13T14:03:08.188Z,4.90
2018-07-13T14:05:49.619Z,4.47
2018-07-13T14:08:31.203Z,4.13
2018-07-13T14:11:12.763Z,4.30
2018-07-13T14:13:55.068Z,3.77
2018-07-13T14:16:36.500Z,4.00
2018-07-13T14:19:17.985Z,3.73
2018-07-13T14:21:59.475Z,3.60
2018-07-13T14:24:40.991Z,4.10
2018-07-13T14:27:22.950Z,3.53
2018-07-13T14:30:04.784Z,3.70
2018-07-13T14:32:46.891Z,4.73
2018-07-13T14:35:28.340Z,3.70
2018-07-13T14:38:09.851Z,3.50
2018-07-13T14:40:52.402Z,4.50
2018-07-13T14:43:33.923Z,3.77
2018-07-13T14:46:15.629Z,3.53
2018-07-13T14:48:57.148Z,3.37
2018-07-13T14:51:38.559Z,4.10
2018-07-13T14:54:19.973Z,3.73
2018-07-13T14:57:01.718Z,4.13
2018-07-13T14:59:43.481Z,4.43
2018-07-13T15:02:25.072Z,4.03
2018-07-13T15:05:06.807Z,3.83
2018-07-13T15:07:48.183Z,4.07
2018-07-13T15:10:29.702Z,4.27
2018-07-13T15:13:11.264Z,3.73
2018-07-13T15:15:54.172Z,3.73
2018-07-13T15:18:35.532Z,4.73
2018-07-13T15:21:22.529Z,3.70
2018-07-13T15:24:04.036Z,4.57
2018-07-13T15:26:45.643Z,4.10
2018-07-13T15:29:27.203Z,3.77
2018-07-13T15:32:08.752Z,3.73
2018-07-13T15:34:50.260Z,3.43
2018-07-13T15:37:31.795Z,3.40
2018-07-13T15:40:13.220Z,3.30
2018-07-13T15:42:55.149Z,3.30
2018-07-13T15:45:36.399Z,3.40
2018-07-13T15:48:17.798Z,3.50
2018-07-13T15:50:59.363Z,3.27
2018-07-13T15:53:40.867Z,3.97
2018-07-13T15:56:22.993Z,4.13
2018-07-13T15:59:04.475Z,4.40
2018-07-13T16:01:45.988Z,4.50
2018-07-13T16:04:27.334Z,4.67
2018-07-13T16:07:08.779Z,4.60
2018-07-13T16:09:50.363Z,5.30
2018-07-13T16:12:31.795Z,5.40
2018-07-13T16:15:13.188Z,4.97
2018-07-13T16:17:55.124Z,4.47
2018-07-13T16:20:36.644Z,5.60
2018-07-13T16:23:18.194Z,5.37
2018-07-13T16:25:59.566Z,4.77
2018-07-13T16:28:41.128Z,5.93
2018-07-13T16:31:24.147Z,7.17
2018-07-13T16:34:05.736Z,8.07
2018-07-13T16:36:47.039Z,6.77
2018-07-13T16:39:29.254Z,5.73
2018-07-13T16:42:10.885Z,6.37
2018-07-13T16:44:53.032Z,6.00
2018-07-13T16:47:34.536Z,6.87
2018-07-13T16:50:16.136Z,5.70
2018-07-13T16:52:57.651Z,6.60
2018-07-13T16:55:42.814Z,9.47
2018-07-13T16:58:24.311Z,5.93
2018-07-13T17:01:05.830Z,6.60
2018-07-13T17:03:47.252Z,6.03
2018-07-13T17:06:28.626Z,7.33
2018-07-13T17:09:10.154Z,6.83
2018-07-13T17:11:52.418Z,6.40
2018-07-13T17:14:33.882Z,5.90
2018-07-13T17:17:15.395Z,6.27
2018-07-13T17:19:56.926Z,7.23
2018-07-13T17:22:38.294Z,6.80
2018-07-13T17:25:19.675Z,6.27
2018-07-13T17:28:01.362Z,6.63
2018-07-13T17:30:42.755Z,8.03
2018-07-13T17:33:25.082Z,8.03
2018-07-13T17:36:06.497Z,7.90
2018-07-13T17:38:48.032Z,9.17
2018-07-13T17:41:29.568Z,8.13
2018-07-13T17:44:11.071Z,7.53
2018-07-13T17:46:53.019Z,7.17
2018-07-13T17:49:34.423Z,7.17
2018-07-13T17:52:15.948Z,8.40
2018-07-13T17:54:57.321Z,9.30
2018-07-13T17:57:38.761Z,9.17
2018-07-13T18:00:20.131Z,8.90
2018-07-13T18:03:02.073Z,8.73
2018-07-13T18:05:43.609Z,8.53
2018-07-13T18:08:25.688Z,9.33
2018-07-13T18:11:07.164Z,8.70
2018-07-13T18:13:49.729Z,8.70
2018-07-13T18:16:31.200Z,6.63
2018-07-13T18:19:12.674Z,7.80
2018-07-13T18:21:54.188Z,7.37
2018-07-13T18:24:35.606Z,7.97
2018-07-13T18:27:16.989Z,6.93
2018-07-13T18:29:58.494Z,7.63
2018-07-13T18:32:40.053Z,7.80
2018-07-13T18:35:22.507Z,8.47
2018-07-13T18:38:03.817Z,7.93
2018-07-13T18:40:45.235Z,6.90
2018-07-13T18:43:26.854Z,7.10
2018-07-13T18:46:08.499Z,7.53
2018-07-13T18:48:49.977Z,7.87
2018-07-13T18:51:31.397Z,7.20
2018-07-13T18:54:12.836Z,7.97
2018-07-13T18:57:01.496Z,8.30
2018-07-13T18:59:42.949Z,9.13
2018-07-13T19:02:24.252Z,8.07
2018-07-13T19:05:05.802Z,9.13
2018-07-13T19:07:47.208Z,9.63
2018-07-13T19:10:28.587Z,8.97
2018-07-13T19:13:10.121Z,9.47
2018-07-13T19:15:52.415Z,10.10
2018-07-13T19:18:34.365Z,10.37
2018-07-13T19:21:15.700Z,10.10
2018-07-13T19:23:57.313Z,9.73
2018-07-13T19:26:38.717Z,10.70
2018-07-13T19:29:21.404Z,10.40
2018-07-13T19:32:03.940Z,9.83
2018-07-13T19:34:45.420Z,11.20
2018-07-13T19:37:27.002Z,10.43
2018-07-13T19:40:08.479Z,12.10
2018-07-13T19:42:50.192Z,11.13
2018-07-13T19:45:32.193Z,10.47
2018-07-13T19:48:15.868Z,10.77
2018-07-13T19:50:58.251Z,10.83
2018-07-13T19:53:40.782Z,9.87
2018-07-13T19:56:23.553Z,10.83
2018-07-13T19:59:05.846Z,10.73
2018-07-13T20:01:47.315Z,11.30
2018-07-13T20:04:28.563Z,11.87
2018-07-13T20:07:10.026Z,13.03
2018-07-13T20:09:52.687Z,14.70
2018-07-13T20:12:35.113Z,13.27
2018-07-13T20:15:16.640Z,12.47
2018-07-13T20:17:58.112Z,11.40
2018-07-13T20:20:39.900Z,10.53
2018-07-13T20:23:22.904Z,9.87
2018-07-13T20:26:04.498Z,9.50
2018-07-13T20:28:45.948Z,10.43
2018-07-13T20:31:27.378Z,13.27
2018-07-13T20:34:08.828Z,12.83
2018-07-13T20:37:07.824Z,13.40
2018-07-13T20:39:49.536Z,12.77
2018-07-13T20:42:31.603Z,11.57
2018-07-13T20:45:13.128Z,11.53
2018-07-13T20:47:55.227Z,11.60
2018-07-13T20:50:36.834Z,11.47
2018-07-13T20:53:18.340Z,12.10
2018-07-13T20:55:59.927Z,12.53
2018-07-13T20:58:47.180Z,10.90
2018-07-13T21:01:30.467Z,10.30
2018-07-13T21:04:14.388Z,9.80
2018-07-13T21:06:56.786Z,9.33
2018-07-13T21:09:39.608Z,9.10
2018-07-13T21:12:21.827Z,8.93
2018-07-13T21:15:03.374Z,10.13
2018-07-13T21:17:45.813Z,9.90
2018-07-13T21:20:27.602Z,10.90
2018-07-13T21:23:09.220Z,11.23
2018-07-13T21:25:50.623Z,10.83
2018-07-13T21:28:34.053Z,10.13
2018-07-13T21:31:15.469Z,9.70
2018-07-13T21:33:58.344Z,9.90
2018-07-13T21:36:40.009Z,10.13
2018-07-13T21:39:21.429Z,9.27
2018-07-13T21:42:03.048Z,9.43
2018-07-13T21:44:44.489Z,10.03
2018-07-13T21:47:27.177Z,10.27
2018-07-13T21:50:08.580Z,9.53
2018-07-13T21:52:49.824Z,8.83
2018-07-13T21:55:31.218Z,9.23
2018-07-13T21:58:12.687Z,9.23
2018-07-13T22:00:55.062Z,8.13
2018-07-13T22:03:36.464Z,8.80
2018-07-13T22:06:17.945Z,7.80
2018-07-13T22:08:59.440Z,7.97
2018-07-13T22:11:40.872Z,8.57
2018-07-13T22:14:22.233Z,8.33
2018-07-13T22:17:03.632Z,8.13
2018-07-13T22:19:45.927Z,8.57
2018-07-13T22:22:27.934Z,8.30
2018-07-13T22:25:09.453Z,8.07
2018-07-13T22:27:51.299Z,9.30
2018-07-13T22:30:33.137Z,7.77
2018-07-13T22:33:14.692Z,8.63
2018-07-13T22:35:56.278Z,10.07
2018-07-13T22:38:37.694Z,10.17
2018-07-13T22:41:19.162Z,8.80
2018-07-13T22:44:01.132Z,8.30
2018-07-13T22:46:42.464Z,7.57
2018-07-13T22:49:24.402Z,9.13
2018-07-13T22:52:06.115Z,8.97
2018-07-13T22:54:47.500Z,8.37
2018-07-13T22:57:29.013Z,8.57
2018-07-13T23:00:11.566Z,7.83
2018-07-13T23:02:53.485Z,7.83
2018-07-13T23:05:35.080Z,7.77
2018-07-13T23:08:16.603Z,8.33
2018-07-13T23:10:58.848Z,7.13
2018-07-13T23:13:40.339Z,8.10
2018-07-13T23:16:21.883Z,7.97
2018-07-13T23:19:03.252Z,7.23
2018-07-13T23:21:44.638Z,7.40
2018-07-13T23:24:26.207Z,7.80
2018-07-13T23:27:07.643Z,7.50
2018-07-13T23:29:49.131Z,7.30
2018-07-13T23:32:30.551Z,7.70
2018-07-13T23:35:12.063Z,8.13
2018-07-13T23:37:54.384Z,8.40
2018-07-13T23:40:36.353Z,8.00
2018-07-13T23:43:17.773Z,7.67
2018-07-13T23:45:59.020Z,8.90
2018-07-13T23:48:45.316Z,8.93
2018-07-13T23:51:27.131Z,8.37
2018-07-13T23:54:09.402Z,8.47
2018-07-13T23:56:50.837Z,8.60
2018-07-13T23:59:33.722Z,7.97
